Time;durP1;ratioP1;P1;durP2;ratioP2;P2;SDS_P1;SDS_P2;PMS_P1;PMS_P2;Temp;Humidity;BMP_temperature;BMP_pressure;BME280_temperature;BME280_humidity;BME280_pressure;Samples;Min_cycle;Max_cycle;Signal;HPM_P1;HPM_P2
2023/12/15 00:01:13;;;;;;;5.15;1.00;;;25.90;99.90;;;;;;5014263;28;20194;-77
2023/12/15 00:03:44;;;;;;;6.55;1.50;;;26.00;99.90;;;;;;4995613;28;20271;-75
2023/12/15 00:06:14;;;;;;;5.53;1.42;;;26.10;99.90;;;;;;4995802;28;20187;-77
2023/12/15 00:08:45;;;;;;;6.03;1.40;;;26.10;99.90;;;;;;4998935;28;20194;-78
2023/12/15 00:11:16;;;;;;;6.68;1.50;;;25.90;99.90;;;;;;4995571;28;20196;-77
2023/12/15 00:13:47;;;;;;;10.02;1.50;;;25.80;99.90;;;;;;5002974;28;20207;-76
2023/12/15 00:16:19;;;;;;;6.72;1.27;;;25.90;99.90;;;;;;5008169;28;20569;-78
2023/12/15 00:18:50;;;;;;;7.93;1.33;;;25.90;99.90;;;;;;5011827;28;20627;-75
2023/12/15 00:21:21;;;;;;;6.57;1.50;;;25.80;99.90;;;;;;5003986;28;20549;-74
2023/12/15 00:23:52;;;;;;;9.00;1.60;;;25.90;99.90;;;;;;5013084;28;20554;-75
2023/12/15 00:26:22;;;;;;;6.82;1.48;;;26.20;99.90;;;;;;5001585;28;20187;-77
2023/12/15 00:28:53;;;;;;;6.05;1.52;;;26.50;99.90;;;;;;4994260;28;20242;-78
2023/12/15 00:31:26;;;;;;;8.43;1.50;;;26.60;99.90;;;;;;4994461;28;20635;-79
2023/12/15 00:33:57;;;;;;;7.13;1.65;;;26.90;99.90;;;;;;4994817;28;20211;-79
2023/12/15 00:36:27;;;;;;;7.57;1.65;;;27.00;99.90;;;;;;5007527;28;20274;-78
2023/12/15 00:38:58;;;;;;;6.82;1.50;;;27.10;99.90;;;;;;5006986;28;20188;-79
2023/12/15 00:41:29;;;;;;;6.15;1.52;;;27.00;99.90;;;;;;4994965;28;20266;-79
2023/12/15 00:43:59;;;;;;;8.45;1.58;;;27.10;99.90;;;;;;5002555;28;20651;-75
2023/12/15 00:46:32;;;;;;;7.10;1.70;;;27.00;99.90;;;;;;5007147;28;20667;-76
2023/12/15 00:49:03;;;;;;;8.35;1.30;;;26.80;99.90;;;;;;5009676;28;20195;-77
2023/12/15 00:51:34;;;;;;;4.97;1.30;;;26.50;99.90;;;;;;5011359;28;20195;-77
2023/12/15 00:54:05;;;;;;;4.75;1.65;;;26.40;99.90;;;;;;4997420;28;20270;-77
2023/12/15 00:56:36;;;;;;;5.88;1.58;;;26.20;99.90;;;;;;5005575;28;20294;-77
2023/12/15 00:59:06;;;;;;;13.05;1.67;;;26.20;99.90;;;;;;5014412;28;20238;-77
2023/12/15 01:01:39;;;;;;;7.68;1.75;;;26.30;99.90;;;;;;5012308;28;20209;-76
2023/12/15 01:04:10;;;;;;;7.57;1.85;;;26.30;99.90;;;;;;5012549;28;20214;-77
2023/12/15 01:06:40;;;;;;;9.07;1.40;;;26.20;99.90;;;;;;5013962;28;20217;-76
2023/12/15 01:09:11;;;;;;;11.38;1.83;;;26.10;99.90;;;;;;5003140;28;20298;-77
2023/12/15 01:11:42;;;;;;;4.53;1.38;;;25.90;99.90;;;;;;4993141;28;20187;-75
2023/12/15 01:14:13;;;;;;;8.07;1.50;;;25.90;99.90;;;;;;4993735;28;20198;-76
2023/12/15 01:16:50;;;;;;;10.02;1.48;;;26.00;99.90;;;;;;4992733;28;20293;-78
2023/12/15 01:19:21;;;;;;;4.05;1.10;;;25.90;99.90;;;;;;4996197;28;20187;-77
2023/12/15 01:21:52;;;;;;;5.88;1.50;;;25.90;99.90;;;;;;5007984;28;20207;-79
2023/12/15 01:24:23;;;;;;;7.28;1.58;;;26.20;99.90;;;;;;5009870;28;20195;-78
2023/12/15 01:26:54;;;;;;;7.78;1.48;;;26.70;99.90;;;;;;5013790;28;20661;-76
2023/12/15 01:29:24;;;;;;;10.55;1.65;;;27.20;99.90;;;;;;5013609;28;20278;-75
2023/12/15 01:31:57;;;;;;;6.32;1.40;;;27.60;99.90;;;;;;5013327;28;20197;-76
2023/12/15 01:34:28;;;;;;;5.60;1.30;;;27.70;99.90;;;;;;5012494;28;20630;-75
2023/12/15 01:36:59;;;;;;;10.07;1.60;;;27.80;99.90;;;;;;5013490;28;20202;-75
2023/12/15 01:39:29;;;;;;;5.03;1.20;;;27.90;99.90;;;;;;5013702;28;20193;-74
2023/12/15 01:42:00;;;;;;;8.27;1.30;;;27.90;99.90;;;;;;5013518;28;20630;-78
2023/12/15 01:44:31;;;;;;;5.25;1.55;;;28.00;99.90;;;;;;5013152;28;20195;-78
2023/12/15 01:47:04;;;;;;;4.15;1.50;;;28.10;99.90;;;;;;5013793;28;20274;-78
2023/12/15 01:49:35;;;;;;;8.18;1.70;;;28.10;99.90;;;;;;5013521;28;20194;-77
2023/12/15 01:52:06;;;;;;;7.78;1.50;;;28.30;99.90;;;;;;5013321;28;20198;-79
2023/12/15 01:54:37;;;;;;;8.73;1.58;;;28.20;99.90;;;;;;5006871;28;20204;-76
2023/12/15 01:57:09;;;;;;;6.15;1.35;;;28.30;99.90;;;;;;4993731;28;20200;-77
2023/12/15 01:59:46;;;;;;;10.15;1.60;;;28.10;99.90;;;;;;4993368;28;20729;-76
2023/12/15 02:02:19;;;;;;;7.22;1.50;;;28.20;99.90;;;;;;4993757;28;20262;-78
2023/12/15 02:04:50;;;;;;;7.75;2.20;;;28.30;99.90;;;;;;4993720;28;20563;-74
2023/12/15 02:07:21;;;;;;;8.95;1.63;;;28.10;99.90;;;;;;4993651;28;20564;-74
2023/12/15 02:09:52;;;;;;;5.47;1.48;;;27.90;99.90;;;;;;4993666;28;20191;-77
2023/12/15 02:12:23;;;;;;;5.82;1.40;;;28.00;99.90;;;;;;4993562;28;20226;-75
2023/12/15 02:14:53;;;;;;;7.03;1.40;;;28.20;99.90;;;;;;4993342;28;20196;-75
2023/12/15 02:17:26;;;;;;;6.80;1.60;;;28.30;99.90;;;;;;4993594;28;20196;-74
2023/12/15 02:19:57;;;;;;;7.18;1.27;;;28.50;99.90;;;;;;4993525;28;20206;-76
2023/12/15 02:22:30;;;;;;;9.40;1.90;;;28.60;99.90;;;;;;4993491;28;20202;-76
2023/12/15 02:25:01;;;;;;;7.30;1.80;;;28.30;99.90;;;;;;4993464;28;20196;-75
2023/12/15 02:27:31;;;;;;;6.38;1.40;;;28.20;99.90;;;;;;4993526;28;20200;-75
2023/12/15 02:30:02;;;;;;;4.78;1.45;;;27.90;99.90;;;;;;4993453;28;20191;-77
2023/12/15 02:32:33;;;;;;;6.50;1.55;;;27.90;99.90;;;;;;4993462;28;20226;-74
2023/12/15 02:35:04;;;;;;;6.47;1.20;;;27.60;99.90;;;;;;4993555;28;20192;-75
2023/12/15 02:37:36;;;;;;;9.13;1.50;;;27.70;99.90;;;;;;4993509;28;20250;-75
2023/12/15 02:40:08;;;;;;;9.95;1.58;;;27.90;99.90;;;;;;4993580;28;20278;-74
2023/12/15 02:42:42;;;;;;;9.27;1.70;;;27.90;99.90;;;;;;4993210;28;20204;-74
2023/12/15 02:45:13;;;;;;;6.25;1.27;;;27.90;99.90;;;;;;4993247;28;20236;-75
2023/12/15 02:47:44;;;;;;;6.82;1.45;;;27.80;99.90;;;;;;4995410;28;20199;-77
2023/12/15 02:50:15;;;;;;;4.50;1.20;;;27.70;99.90;;;;;;4997227;28;20659;-76
2023/12/15 02:52:48;;;;;;;4.55;1.33;;;27.70;99.90;;;;;;4998119;28;20278;-74
2023/12/15 02:55:19;;;;;;;3.35;0.90;;;27.40;99.90;;;;;;4996879;28;20192;-74
2023/12/15 02:57:48;;;;;;;6.68;1.63;;;27.80;99.90;;;;;;4996666;28;20678;-76
2023/12/15 03:00:19;;;;;;;4.55;1.15;;;27.80;99.90;;;;;;4996609;28;20242;-79
2023/12/15 03:02:50;;;;;;;5.40;1.50;;;27.60;99.90;;;;;;4996889;28;20246;-79
2023/12/15 03:05:21;;;;;;;6.30;1.30;;;27.80;99.90;;;;;;4996896;28;20670;-79
2023/12/15 03:07:56;;;;;;;5.40;1.30;;;27.70;99.90;;;;;;4996817;28;20202;-79
2023/12/15 03:10:27;;;;;;;8.80;1.98;;;27.80;99.90;;;;;;5005884;28;20210;-78
2023/12/15 03:12:58;;;;;;;7.18;1.15;;;27.70;99.90;;;;;;5016013;28;20681;-77
2023/12/15 03:15:28;;;;;;;7.35;1.25;;;27.50;99.90;;;;;;5016105;28;20278;-77
2023/12/15 03:17:59;;;;;;;6.65;1.50;;;27.60;99.90;;;;;;5016164;28;20191;-76
2023/12/15 03:20:30;;;;;;;4.80;1.40;;;27.80;99.90;;;;;;5016086;28;20195;-79
2023/12/15 03:23:02;;;;;;;6.07;1.50;;;27.70;99.90;;;;;;5016200;28;20273;-77
2023/12/15 03:25:33;;;;;;;7.22;1.70;;;27.80;99.90;;;;;;5016055;28;20206;-78
2023/12/15 03:28:07;;;;;;;10.07;1.70;;;27.60;99.90;;;;;;5015834;28;20187;-75
2023/12/15 03:30:38;;;;;;;6.55;1.40;;;27.40;99.90;;;;;;5016027;28;20209;-75
2023/12/15 03:33:08;;;;;;;6.03;1.63;;;27.60;99.90;;;;;;5015846;28;20214;-78
2023/12/15 03:35:39;;;;;;;4.78;1.60;;;27.50;99.90;;;;;;5015987;28;20193;-74
2023/12/15 03:38:14;;;;;;;4.22;1.38;;;27.30;99.90;;;;;;5015684;28;20191;-75
2023/12/15 03:40:45;;;;;;;6.38;1.60;;;27.30;99.90;;;;;;5015462;28;20241;-75
2023/12/15 03:43:16;;;;;;;5.97;1.60;;;27.20;99.90;;;;;;5015655;28;20202;-76
2023/12/15 03:45:47;;;;;;;4.45;1.30;;;27.00;99.90;;;;;;5015482;28;20313;-76
2023/12/15 03:48:21;;;;;;;4.03;1.30;;;26.80;99.90;;;;;;5015785;28;20194;-77
2023/12/15 03:50:52;;;;;;;6.43;1.55;;;26.80;99.90;;;;;;5015518;28;20197;-77
2023/12/15 03:53:24;;;;;;;8.02;1.52;;;26.80;99.90;;;;;;5011893;28;20229;-77
2023/12/15 03:55:55;;;;;;;8.65;1.40;;;26.70;99.90;;;;;;4996138;28;20226;-78
2023/12/15 03:58:26;;;;;;;8.02;1.60;;;26.50;99.90;;;;;;4995452;28;20231;-77
2023/12/15 04:00:57;;;;;;;6.20;1.67;;;26.40;99.90;;;;;;4996031;28;20200;-77
2023/12/15 04:03:28;;;;;;;6.93;1.30;;;26.50;99.90;;;;;;4995646;28;20278;-76
2023/12/15 04:06:00;;;;;;;3.78;1.25;;;26.50;99.90;;;;;;4995786;28;20198;-75
2023/12/15 04:08:32;;;;;;;5.13;1.48;;;26.60;99.90;;;;;;4995727;28;20246;-78
2023/12/15 04:11:03;;;;;;;7.32;1.70;;;26.60;99.90;;;;;;4995191;28;20632;-77
2023/12/15 04:13:34;;;;;;;8.02;1.65;;;26.40;99.90;;;;;;4997582;28;20215;-77
2023/12/15 04:16:06;;;;;;;4.57;1.23;;;26.30;99.90;;;;;;4995388;28;20202;-77
2023/12/15 04:18:40;;;;;;;6.13;1.15;;;26.50;99.90;;;;;;4995360;28;20196;-76
2023/12/15 04:21:11;;;;;;;5.50;1.65;;;26.40;99.90;;;;;;4995276;28;20242;-78
2023/12/15 04:23:43;;;;;;;5.72;1.50;;;26.30;99.90;;;;;;4995248;28;20286;-79
2023/12/15 04:26:14;;;;;;;4.38;1.30;;;26.30;99.90;;;;;;4995002;28;20198;-77
2023/12/15 04:28:45;;;;;;;4.03;1.15;;;26.30;99.90;;;;;;4997623;28;20191;-81
2023/12/15 04:31:16;;;;;;;6.72;1.75;;;26.20;99.90;;;;;;4995159;28;20663;-77
2023/12/15 04:33:47;;;;;;;6.65;1.48;;;26.30;99.90;;;;;;4995082;28;20246;-80
2023/12/15 04:36:21;;;;;;;7.93;1.50;;;26.40;99.90;;;;;;4995025;28;20200;-80
2023/12/15 04:38:54;;;;;;;8.52;1.55;;;26.30;99.90;;;;;;4994862;28;20198;-78
2023/12/15 04:41:25;;;;;;;7.43;1.30;;;26.00;99.90;;;;;;4994939;28;20188;-75
2023/12/15 04:43:56;;;;;;;5.93;1.25;;;25.90;99.90;;;;;;4994930;28;20559;-77
2023/12/15 04:46:27;;;;;;;7.93;1.40;;;25.80;99.90;;;;;;4994730;28;20228;-78
2023/12/15 04:48:59;;;;;;;7.05;1.42;;;25.60;99.90;;;;;;4994733;28;20286;-77
2023/12/15 04:51:30;;;;;;;5.60;1.10;;;25.50;99.90;;;;;;4995050;28;20223;-75
2023/12/15 04:54:03;;;;;;;8.57;1.48;;;25.60;99.90;;;;;;4994504;28;20219;-78
2023/12/15 04:56:33;;;;;;;5.47;1.50;;;25.60;99.90;;;;;;4997583;28;20254;-77
2023/12/15 04:59:04;;;;;;;5.78;1.42;;;25.60;99.90;;;;;;4994568;28;20245;-77
2023/12/15 05:01:35;;;;;;;5.45;1.38;;;25.70;99.90;;;;;;4994665;28;20187;-76
2023/12/15 05:04:06;;;;;;;5.63;1.75;;;25.70;99.90;;;;;;4994547;28;20200;-76
2023/12/15 05:06:37;;;;;;;8.00;1.58;;;25.70;99.90;;;;;;4994580;28;20203;-80
2023/12/15 05:09:14;;;;;;;8.75;1.52;;;25.80;99.90;;;;;;4994206;28;20218;-77
2023/12/15 05:11:45;;;;;;;6.28;1.48;;;25.70;99.90;;;;;;4994327;28;20202;-78
2023/12/15 05:14:16;;;;;;;9.05;1.85;;;25.60;99.90;;;;;;5000562;28;20221;-75
2023/12/15 05:16:46;;;;;;;7.65;1.27;;;25.60;99.90;;;;;;5013925;28;20203;-77
2023/12/15 05:19:17;;;;;;;9.23;1.50;;;25.50;99.90;;;;;;5014189;28;20291;-77
2023/12/15 05:21:48;;;;;;;6.55;1.45;;;25.60;99.90;;;;;;5013955;28;20601;-76
2023/12/15 05:24:21;;;;;;;9.60;1.55;;;25.60;99.90;;;;;;5013348;28;20278;-75
2023/12/15 05:26:51;;;;;;;7.00;1.55;;;25.60;99.90;;;;;;5013881;28;20576;-75
2023/12/15 05:29:22;;;;;;;7.03;1.50;;;25.60;99.90;;;;;;5013866;28;20281;-78
2023/12/15 05:31:53;;;;;;;7.88;1.65;;;25.50;99.90;;;;;;5011524;28;20282;-79
2023/12/15 05:34:24;;;;;;;8.18;1.60;;;25.40;99.90;;;;;;5010067;28;20581;-78
2023/12/15 05:36:55;;;;;;;8.05;1.48;;;25.40;99.90;;;;;;5013599;28;20274;-78
2023/12/15 05:39:27;;;;;;;5.30;1.48;;;25.40;99.90;;;;;;5013857;28;20673;-78
2023/12/15 05:41:58;;;;;;;6.90;1.45;;;25.30;99.90;;;;;;5013901;28;20281;-76
2023/12/15 05:44:29;;;;;;;8.20;1.70;;;25.20;99.90;;;;;;5013660;28;20281;-77
2023/12/15 05:47:00;;;;;;;7.60;1.65;;;25.30;99.90;;;;;;5013909;28;20198;-77
2023/12/15 05:49:30;;;;;;;7.07;1.40;;;25.40;99.90;;;;;;5013691;28;20278;-76
2023/12/15 05:52:01;;;;;;;7.55;1.65;;;25.30;99.90;;;;;;4999638;28;20203;-78
2023/12/15 05:54:34;;;;;;;10.32;1.88;;;25.20;99.90;;;;;;4993988;28;20314;-78
2023/12/15 05:57:05;;;;;;;9.63;1.80;;;25.30;99.90;;;;;;4993992;28;20187;-80
2023/12/15 05:59:36;;;;;;;7.38;1.70;;;25.40;99.90;;;;;;4993633;28;20240;-78
2023/12/15 06:02:07;;;;;;;4.80;1.50;;;25.40;99.90;;;;;;4994014;28;20283;-79
2023/12/15 06:04:38;;;;;;;6.80;1.50;;;25.50;99.90;;;;;;4993859;28;20195;-78
2023/12/15 06:07:09;;;;;;;8.00;1.50;;;25.50;99.90;;;;;;4993677;28;20287;-76
2023/12/15 06:09:42;;;;;;;6.10;1.33;;;25.40;99.90;;;;;;4993817;28;20198;-77
2023/12/15 06:12:13;;;;;;;8.95;1.50;;;25.40;99.90;;;;;;4993760;28;20195;-77
2023/12/15 06:14:44;;;;;;;9.10;1.52;;;25.30;99.90;;;;;;4993805;28;20226;-76
2023/12/15 06:17:14;;;;;;;8.30;1.38;;;25.20;99.90;;;;;;4993702;28;20192;-77
2023/12/15 06:19:45;;;;;;;5.38;1.30;;;25.30;99.90;;;;;;4993731;28;20227;-79
2023/12/15 06:22:16;;;;;;;6.65;2.03;;;25.10;99.90;;;;;;4994739;28;20274;-77
2023/12/15 06:24:49;;;;;;;7.47;1.48;;;25.10;99.90;;;;;;4997453;28;20192;-77
2023/12/15 06:27:19;;;;;;;7.80;1.52;;;25.20;99.90;;;;;;4997495;28;20234;-76
2023/12/15 06:29:50;;;;;;;7.03;1.88;;;25.20;99.90;;;;;;4997535;28;20636;-76
2023/12/15 06:32:21;;;;;;;8.23;1.65;;;25.00;99.90;;;;;;4997494;28;20238;-76
2023/12/15 06:34:52;;;;;;;9.85;1.63;;;24.90;99.90;;;;;;4997006;28;20323;-77
2023/12/15 06:37:22;;;;;;;8.40;1.58;;;24.80;99.90;;;;;;4998194;28;20199;-77
2023/12/15 06:39:55;;;;;;;7.97;1.38;;;24.90;99.90;;;;;;4997200;28;20195;-77
2023/12/15 06:42:26;;;;;;;10.70;2.05;;;24.90;99.90;;;;;;4997246;28;20196;-77
2023/12/15 06:44:58;;;;;;;6.40;1.38;;;24.70;99.90;;;;;;4997242;28;20226;-76
2023/12/15 06:47:29;;;;;;;8.48;1.77;;;24.80;99.90;;;;;;4996766;28;20192;-76
2023/12/15 06:49:59;;;;;;;10.52;1.65;;;24.80;99.90;;;;;;4996289;28;20195;-77
2023/12/15 06:52:31;;;;;;;6.72;1.40;;;24.90;99.90;;;;;;4998641;28;20195;-75
2023/12/15 06:55:04;;;;;;;9.00;1.98;;;24.90;99.90;;;;;;4994644;28;20318;-74
2023/12/15 06:57:35;;;;;;;13.35;1.90;;;24.90;99.90;;;;;;4995118;28;20294;-76
2023/12/15 07:00:08;;;;;;;8.32;1.60;;;24.80;99.90;;;;;;4994726;28;20246;-78
2023/12/15 07:02:39;;;;;;;7.97;1.58;;;24.70;99.90;;;;;;4994790;28;20195;-76
2023/12/15 07:05:11;;;;;;;8.52;1.80;;;24.70;99.90;;;;;;4994443;28;20199;-75
2023/12/15 07:07:41;;;;;;;8.65;1.85;;;24.70;99.90;;;;;;4995689;28;20196;-76
2023/12/15 07:10:16;;;;;;;9.20;1.90;;;24.50;99.90;;;;;;5009236;28;20201;-75
2023/12/15 07:12:47;;;;;;;8.52;1.70;;;24.40;99.90;;;;;;5015346;28;20604;-75
2023/12/15 07:15:18;;;;;;;7.35;2.08;;;24.50;99.90;;;;;;5016111;28;20226;-76
2023/12/15 07:17:49;;;;;;;10.32;1.58;;;24.40;99.90;;;;;;5017069;28;20203;-75
2023/12/15 07:20:20;;;;;;;8.40;1.67;;;24.30;99.90;;;;;;5016044;28;20199;-74
2023/12/15 07:22:50;;;;;;;9.23;1.77;;;24.30;99.90;;;;;;5016057;28;20211;-74
2023/12/15 07:25:24;;;;;;;10.27;2.10;;;24.30;99.90;;;;;;5016136;28;20195;-75
2023/12/15 07:27:55;;;;;;;9.82;1.58;;;24.30;99.90;;;;;;5012472;28;20203;-77
2023/12/15 07:30:25;;;;;;;6.60;1.40;;;24.30;99.90;;;;;;5016200;28;20234;-76
2023/12/15 07:32:56;;;;;;;9.27;2.00;;;24.30;99.90;;;;;;5015279;28;20661;-75
2023/12/15 07:35:27;;;;;;;8.70;1.50;;;24.20;99.90;;;;;;5015715;28;20313;-74
2023/12/15 07:37:58;;;;;;;10.35;1.90;;;24.20;99.90;;;;;;5015763;28;20278;-75
2023/12/15 07:40:30;;;;;;;10.65;2.00;;;24.10;99.90;;;;;;5015769;28;20187;-78
2023/12/15 07:43:01;;;;;;;7.30;1.80;;;24.00;99.90;;;;;;5015650;28;20265;-74
2023/12/15 07:45:32;;;;;;;8.35;1.70;;;24.00;99.90;;;;;;5015707;28;20255;-74
2023/12/15 07:48:03;;;;;;;9.60;1.80;;;23.90;99.90;;;;;;5015419;28;20195;-74
2023/12/15 07:50:34;;;;;;;9.70;1.88;;;23.90;99.90;;;;;;5015562;28;20197;-75
2023/12/15 07:53:04;;;;;;;9.95;1.90;;;23.80;99.90;;;;;;5015826;28;20193;-74
2023/12/15 07:55:37;;;;;;;11.15;1.70;;;23.90;99.90;;;;;;5015386;28;20222;-75
2023/12/15 07:58:11;;;;;;;9.98;1.98;;;23.90;99.90;;;;;;5015247;28;20195;-72
2023/12/15 08:00:42;;;;;;;9.05;1.85;;;23.90;99.90;;;;;;5015390;28;20195;-74
2023/12/15 08:03:13;;;;;;;11.07;1.88;;;24.00;99.90;;;;;;5015118;28;20278;-75
2023/12/15 08:05:44;;;;;;;10.02;1.90;;;24.00;99.90;;;;;;5015205;28;20191;-77
2023/12/15 08:08:14;;;;;;;9.38;1.80;;;24.10;99.90;;;;;;5015260;28;20532;-74
2023/12/15 08:10:47;;;;;;;7.80;1.50;;;24.00;99.90;;;;;;5012203;28;20195;-74
2023/12/15 08:13:18;;;;;;;9.88;2.00;;;24.00;99.90;;;;;;4995549;28;20279;-74
2023/12/15 08:15:49;;;;;;;9.65;2.10;;;24.00;99.90;;;;;;4995349;28;20306;-74
2023/12/15 08:18:19;;;;;;;9.60;1.80;;;24.00;99.90;;;;;;4995290;28;20201;-76
2023/12/15 08:20:50;;;;;;;9.60;1.63;;;24.00;99.90;;;;;;4995743;28;20192;-75
2023/12/15 08:23:21;;;;;;;10.38;2.15;;;23.90;99.90;;;;;;4995434;28;20198;-74
2023/12/15 08:25:54;;;;;;;11.80;2.05;;;23.80;99.90;;;;;;4995175;28;20195;-76
2023/12/15 08:28:25;;;;;;;12.20;1.75;;;23.70;99.90;;;;;;4995229;28;20200;-75
2023/12/15 08:30:55;;;;;;;9.35;1.92;;;23.70;99.90;;;;;;4995351;28;20204;-76
2023/12/15 08:33:27;;;;;;;9.25;1.90;;;23.60;99.90;;;;;;4995226;28;20196;-76
2023/12/15 08:35:58;;;;;;;9.05;1.95;;;23.60;99.90;;;;;;4995045;28;20219;-75
2023/12/15 08:38:29;;;;;;;12.10;1.80;;;23.60;99.90;;;;;;4995174;28;20272;-74
2023/12/15 08:41:01;;;;;;;10.85;1.92;;;23.50;99.90;;;;;;4995231;28;20195;-75
2023/12/15 08:43:32;;;;;;;6.88;1.52;;;23.50;99.90;;;;;;4995008;28;20275;-74
2023/12/15 08:46:03;;;;;;;10.65;1.88;;;23.50;99.90;;;;;;4993898;28;20237;-73
2023/12/15 08:48:34;;;;;;;14.02;2.00;;;23.50;99.90;;;;;;4994949;28;20296;-74
2023/12/15 08:51:05;;;;;;;8.90;1.63;;;23.40;99.90;;;;;;4994989;28;20218;-74
2023/12/15 08:53:35;;;;;;;10.32;1.90;;;23.30;99.90;;;;;;4994882;28;20195;-75
2023/12/15 08:56:08;;;;;;;10.60;1.98;;;23.30;99.90;;;;;;4994657;28;20769;-75
2023/12/15 08:58:39;;;;;;;10.82;1.73;;;23.30;99.90;;;;;;4994644;28;20290;-75
2023/12/15 09:01:10;;;;;;;11.80;2.47;;;23.20;99.90;;;;;;4994462;28;20284;-75
2023/12/15 09:03:41;;;;;;;7.13;1.90;;;23.20;99.90;;;;;;4994605;28;20196;-75
2023/12/15 09:06:12;;;;;;;8.82;1.80;;;23.30;99.90;;;;;;4994595;28;20191;-74
2023/12/15 09:08:43;;;;;;;13.82;2.20;;;23.20;99.90;;;;;;4994526;28;20192;-75
2023/12/15 09:17:28;;;;;;;11.43;2.03;;;;;;;;;;4997716;28;20552;-76
2023/12/15 09:19:58;;;;;;;11.18;2.10;;;;;;;;;;4994334;28;20192;-75
2023/12/15 09:22:42;;;;;;;10.20;2.05;;;;;;;;;;4994318;28;20242;-75
2023/12/15 09:25:14;;;;;;;15.60;2.15;;;23.20;99.90;;;;;;4994170;28;20323;-74
2023/12/15 09:27:45;;;;;;;10.27;2.05;;;23.10;99.90;;;;;;4994189;28;20279;-78
2023/12/15 09:33:58;;;;;;;11.20;2.10;;;23.00;99.90;;;;;;4994324;28;20238;-74
2023/12/15 09:40:04;;;;;;;10.20;1.90;;;23.00;99.90;;;;;;4989077;28;20211;-76
2023/12/15 09:46:00;;;;;;;9.98;2.08;;;22.90;99.90;;;;;;4994169;28;20214;-75
2023/12/15 11:08:25;;;;;;;9.20;1.75;;;;;;;;;;4996611;28;20676;-74
2023/12/15 11:10:55;;;;;;;9.77;1.90;;;;;;;;;;4996497;28;20188;-75
2023/12/15 11:13:42;;;;;;;12.07;1.88;;;;;;;;;;4996811;28;20286;-75
2023/12/15 11:28:28;;;;;;;7.65;1.60;;;;;;;;;;4996938;28;20291;-75
2023/12/15 11:30:58;;;;;;;12.25;1.77;;;;;;;;;;4996692;28;20274;-75
2023/12/15 11:33:52;;;;;;;8.57;1.85;;;;;;;;;;4996231;28;20215;-74
2023/12/15 11:36:22;;;;;;;10.95;2.10;;;;;;;;;;4974562;28;20238;-75
2023/12/15 11:38:52;;;;;;;11.10;1.73;;;;;;;;;;4996132;28;20203;-75
2023/12/15 11:41:22;;;;;;;6.25;1.48;;;;;;;;;;5015294;28;20238;-74
2023/12/15 11:43:54;;;;;;;9.10;1.50;;;;;;;;;;5023989;28;20285;-74
2023/12/15 11:49:29;;;;;;;7.03;1.55;;;;;;;;;;5015801;28;20553;-74
2023/12/15 11:51:59;;;;;;;8.65;1.60;;;;;;;;;;5015566;28;20230;-74
2023/12/15 11:54:45;;;;;;;11.65;1.92;;;;;;;;;;5015226;28;20211;-75
2023/12/15 12:12:35;;;;;;;7.70;1.73;;;;;;;;;;5014949;28;20280;-75
2023/12/15 12:15:09;;;;;;;7.53;1.42;;;;;;;;;;5014991;28;20226;-75
2023/12/15 12:17:40;;;;;;;9.82;1.77;;;;;;;;;;5014960;28;20233;-75
2023/12/15 12:53:51;;;;;;;8.68;2.05;;;;;;;;;;4995077;28;20210;-75
2023/12/15 13:08:35;;;;;;;6.70;1.77;;;;;;;;;;4994679;28;20255;-75
2023/12/15 14:28:26;;;;;;;8.65;1.70;;;;;;;;;;4990526;28;20233;-75
2023/12/15 14:30:56;;;;;;;10.68;1.90;;;;;;;;;;4993612;28;20191;-75
2023/12/15 14:33:26;;;;;;;6.68;1.88;;;;;;;;;;4993278;28;20203;-74
2023/12/15 14:35:56;;;;;;;11.10;2.00;;;;;;;;;;4993346;28;20661;-75
2023/12/15 14:38:26;;;;;;;8.48;1.75;;;;;;;;;;4993739;28;20243;-75
2023/12/15 14:40:56;;;;;;;8.45;1.90;;;;;;;;;;4994598;28;20203;-75
2023/12/15 14:43:28;;;;;;;7.78;1.60;;;;;;;;;;4994825;28;20214;-75
2023/12/15 14:45:58;;;;;;;7.80;1.88;;;;;;;;;;4997109;28;20223;-74
2023/12/15 14:48:28;;;;;;;10.98;2.28;;;;;;;;;;4997225;28;20214;-75
2023/12/15 14:50:58;;;;;;;10.93;2.92;;;;;;;;;;4997210;28;20210;-74
2023/12/15 14:53:28;;;;;;;7.80;2.70;;;;;;;;;;4997310;28;20286;-75
2023/12/15 14:55:58;;;;;;;9.85;3.22;;;;;;;;;;4997101;28;20318;-75
2023/12/15 14:58:30;;;;;;;13.45;4.03;;;;;;;;;;4996890;28;20290;-76
2023/12/15 15:01:00;;;;;;;11.32;3.83;;;;;;;;;;4996881;28;20560;-74
2023/12/15 15:03:30;;;;;;;12.55;4.15;;;;;;;;;;4996598;28;20743;-75
2023/12/15 15:06:00;;;;;;;12.88;4.65;;;;;;;;;;4997130;28;20208;-75
2023/12/15 15:08:30;;;;;;;13.43;4.88;;;;;;;;;;4996833;28;20210;-75
2023/12/15 15:11:00;;;;;;;11.85;4.72;;;;;;;;;;4996735;28;20242;-75
2023/12/15 15:13:31;;;;;;;18.10;5.13;;;;;;;;;;4996576;28;20207;-76
2023/12/15 15:16:01;;;;;;;13.27;4.95;;;;;;;;;;4996446;28;20223;-75
2023/12/15 15:18:31;;;;;;;13.52;5.55;;;;;;;;;;4996326;28;20199;-76
2023/12/15 15:21:01;;;;;;;14.23;5.88;;;;;;;;;;4996455;28;20207;-75
2023/12/15 15:23:32;;;;;;;15.60;6.18;;;;;;;;;;4996403;28;20208;-75
2023/12/15 15:26:02;;;;;;;15.45;6.15;;;;;;;;;;4996381;28;20195;-75
2023/12/15 15:28:34;;;;;;;18.17;6.65;;;;;;;;;;4996222;28;20326;-76
2023/12/15 15:31:04;;;;;;;14.55;6.50;;;;;;;;;;4996079;28;20194;-75
2023/12/15 15:33:34;;;;;;;13.65;6.50;;;;;;;;;;4996116;28;20213;-75
2023/12/15 15:36:04;;;;;;;15.65;6.00;;;;;;;;;;4996336;28;20586;-75
2023/12/15 15:38:34;;;;;;;11.05;6.03;;;;;;;;;;4996171;28;20295;-76
2023/12/15 15:41:05;;;;;;;13.40;6.70;;;;;;;;;;4996103;28;20569;-76
2023/12/15 15:43:38;;;;;;;15.50;6.20;;;;;;;;;;4996025;28;20191;-75
2023/12/15 15:46:07;;;;;;;15.45;6.60;;;;;;;;;;4996121;28;20274;-75
2023/12/15 15:48:37;;;;;;;13.52;6.13;;;;;;;;;;4996272;28;20210;-75
2023/12/15 15:51:07;;;;;;;16.77;6.30;;;;;;;;;;4996237;28;20204;-75
2023/12/15 15:53:37;;;;;;;18.15;6.78;;;;;;;;;;4995984;28;20199;-75
2023/12/15 15:56:11;;;;;;;12.52;6.40;;;;;;;;;;4995688;28;20235;-76
2023/12/15 15:58:43;;;;;;;14.65;6.90;;;;;;;;;;4995760;28;20208;-75
2023/12/15 16:01:13;;;;;;;13.02;6.20;;;;;;;;;;4995787;28;20292;-76
2023/12/15 16:03:43;;;;;;;13.75;6.90;;;;;;;;;;4995563;28;20561;-76
2023/12/15 16:06:13;;;;;;;16.65;7.15;;;;;;;;;;4995567;28;20659;-76
2023/12/15 16:08:43;;;;;;;13.38;6.18;;;;;;;;;;4995640;28;20196;-76
2023/12/15 16:11:13;;;;;;;13.38;6.93;;;;;;;;;;4995430;28;20199;-76
2023/12/15 16:13:45;;;;;;;15.65;6.65;;;;;;;;;;4995435;28;20208;-76
2023/12/15 16:16:15;;;;;;;15.75;6.53;;;;;;;;;;4995296;28;20253;-76
2023/12/15 16:18:47;;;;;;;12.10;6.35;;;;;;;;;;4995707;28;20242;-76
2023/12/15 16:21:17;;;;;;;18.77;6.68;;;;;;;;;;4995440;28;20195;-76
2023/12/15 16:23:47;;;;;;;12.32;5.95;;;;;;;;;;4995747;28;20200;-75
2023/12/15 16:26:17;;;;;;;13.82;5.80;;;;;;;;;;5014552;28;20658;-75
2023/12/15 16:28:48;;;;;;;14.75;6.28;;;;;;;;;;5015194;28;20187;-76
2023/12/15 16:31:20;;;;;;;15.63;6.20;;;;;;;;;;5014634;28;20190;-76
2023/12/15 16:33:50;;;;;;;14.05;6.25;;;;;;;;;;5014728;28;20227;-76
2023/12/15 16:36:23;;;;;;;15.05;6.13;;;;;;;;;;5014664;28;20780;-75
2023/12/15 16:38:54;;;;;;;17.42;6.78;;;;;;;;;;5014722;28;20632;-75
2023/12/15 16:41:25;;;;;;;15.95;6.15;;;;;;;;;;5014903;28;20212;-75
2023/12/15 16:43:56;;;;;;;16.95;6.38;;;;;;;;;;5014280;28;20191;-76
2023/12/15 16:46:26;;;;;;;11.93;5.93;;;;;;;;;;5014690;28;20199;-76
2023/12/15 16:48:56;;;;;;;15.82;6.25;;;;;;;;;;5014584;28;20627;-76
2023/12/15 16:51:27;;;;;;;17.55;7.22;;;;;;;;;;5014420;28;20663;-76
2023/12/15 16:53:57;;;;;;;12.70;6.28;;;;;;;;;;5014471;28;20210;-75
2023/12/15 16:56:27;;;;;;;15.18;6.57;;;;;;;;;;5014327;28;20682;-76
2023/12/15 16:58:59;;;;;;;15.27;6.90;;;;;;;;;;5014294;28;20258;-76
2023/12/15 17:01:29;;;;;;;14.75;6.55;;;;;;;;;;5014519;28;20643;-76
2023/12/15 17:03:59;;;;;;;14.48;6.63;;;;;;;;;;5014099;28;20207;-76
2023/12/15 17:06:29;;;;;;;15.98;6.30;;;;;;;;;;5013678;28;20214;-76
2023/12/15 17:09:02;;;;;;;15.88;6.53;;;;;;;;;;5014418;28;20209;-76
2023/12/15 17:11:31;;;;;;;12.45;6.28;;;;;;;;;;5014206;28;20202;-76
2023/12/15 17:14:15;;;;;;;14.80;6.43;;;;;;;;;;5013789;28;20632;-76
2023/12/15 17:16:45;;;;;;;13.23;5.82;;;;;;;;;;5014045;28;20302;-76
2023/12/15 17:25:46;;;;;;;15.90;6.25;;;;;;;;;;4994686;28;20214;-76
2023/12/15 17:28:15;;;;;;;13.75;5.80;;;;;;;;;;4993783;28;20246;-76
2023/12/15 17:30:47;;;;;;;17.17;5.75;;;;;;;;;;4994212;28;20203;-76
2023/12/15 17:33:17;;;;;;;12.63;6.07;;;;;;;;;;4994179;28;20195;-76
2023/12/15 17:35:47;;;;;;;12.23;5.80;;;;;;;;;;4994865;28;20212;-76
2023/12/15 17:38:17;;;;;;;17.20;6.28;;;;;;;;;;4993971;28;20211;-76
2023/12/15 17:40:47;;;;;;;12.65;5.65;;;;;;;;;;4993950;28;20558;-76
2023/12/15 17:43:19;;;;;;;18.15;6.10;;;;;;;;;;4993707;28;20226;-76
2023/12/15 17:45:51;;;;;;;13.57;5.25;;;;;;;;;;4994375;28;20243;-76
2023/12/15 17:48:21;;;;;;;13.57;5.18;;;;;;;;;;4993894;28;20192;-76
2023/12/15 17:50:51;;;;;;;13.57;5.63;;;;;;;;;;4993859;28;20574;-76
2023/12/15 17:53:21;;;;;;;14.43;5.30;;;;;;;;;;4994092;28;20243;-75